sensor_id;sensor_type;location;lat;lon;timestamp;P1;durP1;ratioP1;P2;durP2;ratioP2
8050;SDS011;4068;42.158;24.732;2023-07-24T00:00:23;9.48;;;6.38;;
8050;SDS011;4068;42.158;24.732;2023-07-24T00:02:49;10.93;;;6.72;;
8050;SDS011;4068;42.158;24.732;2023-07-24T00:05:15;11.80;;;8.05;;
8050;SDS011;4068;42.158;24.732;2023-07-24T00:07:40;15.88;;;9.80;;
8050;SDS011;4068;42.158;24.732;2023-07-24T00:10:06;15.02;;;8.23;;
8050;SDS011;4068;42.158;24.732;2023-07-24T00:12:32;16.95;;;9.65;;
8050;SDS011;4068;42.158;24.732;2023-07-24T00:14:57;13.57;;;8.63;;
8050;SDS011;4068;42.158;24.732;2023-07-24T00:17:23;20.17;;;9.23;;
8050;SDS011;4068;42.158;24.732;2023-07-24T00:19:48;16.73;;;9.40;;
8050;SDS011;4068;42.158;24.732;2023-07-24T00:22:14;17.38;;;8.32;;
8050;SDS011;4068;42.158;24.732;2023-07-24T00:24:39;13.00;;;8.00;;
8050;SDS011;4068;42.158;24.732;2023-07-24T00:27:05;20.70;;;7.78;;
8050;SDS011;4068;42.158;24.732;2023-07-24T00:29:30;13.13;;;7.25;;
8050;SDS011;4068;42.158;24.732;2023-07-24T00:31:55;11.23;;;6.68;;
8050;SDS011;4068;42.158;24.732;2023-07-24T00:34:21;12.35;;;7.22;;
8050;SDS011;4068;42.158;24.732;2023-07-24T00:36:46;16.13;;;7.35;;
8050;SDS011;4068;42.158;24.732;2023-07-24T00:39:13;11.38;;;6.85;;
8050;SDS011;4068;42.158;24.732;2023-07-24T00:41:39;10.50;;;7.50;;
8050;SDS011;4068;42.158;24.732;2023-07-24T00:44:05;8.95;;;6.45;;
8050;SDS011;4068;42.158;24.732;2023-07-24T00:46:31;10.48;;;6.80;;
8050;SDS011;4068;42.158;24.732;2023-07-24T00:48:58;11.77;;;6.82;;
8050;SDS011;4068;42.158;24.732;2023-07-24T00:51:26;9.55;;;6.60;;
8050;SDS011;4068;42.158;24.732;2023-07-24T00:53:54;12.40;;;7.50;;
8050;SDS011;4068;42.158;24.732;2023-07-24T00:56:20;14.82;;;7.28;;
8050;SDS011;4068;42.158;24.732;2023-07-24T00:58:46;11.05;;;7.78;;
8050;SDS011;4068;42.158;24.732;2023-07-24T01:01:12;12.88;;;7.47;;
8050;SDS011;4068;42.158;24.732;2023-07-24T01:03:39;14.23;;;7.65;;
8050;SDS011;4068;42.158;24.732;2023-07-24T01:06:05;11.80;;;7.65;;
8050;SDS011;4068;42.158;24.732;2023-07-24T01:08:30;10.32;;;8.10;;
8050;SDS011;4068;42.158;24.732;2023-07-24T01:11:00;9.65;;;7.93;;
8050;SDS011;4068;42.158;24.732;2023-07-24T01:13:35;10.93;;;8.05;;
8050;SDS011;4068;42.158;24.732;2023-07-24T01:16:14;13.10;;;8.73;;
8050;SDS011;4068;42.158;24.732;2023-07-24T01:18:44;13.88;;;7.95;;
8050;SDS011;4068;42.158;24.732;2023-07-24T01:21:11;13.40;;;8.60;;
8050;SDS011;4068;42.158;24.732;2023-07-24T01:26:43;10.93;;;7.82;;
8050;SDS011;4068;42.158;24.732;2023-07-24T01:29:09;17.88;;;8.93;;
8050;SDS011;4068;42.158;24.732;2023-07-24T01:31:34;11.77;;;7.55;;
8050;SDS011;4068;42.158;24.732;2023-07-24T01:33:59;10.00;;;7.60;;
8050;SDS011;4068;42.158;24.732;2023-07-24T01:36:25;12.98;;;8.15;;
8050;SDS011;4068;42.158;24.732;2023-07-24T01:38:50;13.52;;;8.60;;
8050;SDS011;4068;42.158;24.732;2023-07-24T01:41:16;12.75;;;8.40;;
8050;SDS011;4068;42.158;24.732;2023-07-24T01:43:42;15.30;;;8.20;;
8050;SDS011;4068;42.158;24.732;2023-07-24T01:46:08;10.77;;;7.95;;
8050;SDS011;4068;42.158;24.732;2023-07-24T01:48:33;12.05;;;7.72;;
8050;SDS011;4068;42.158;24.732;2023-07-24T01:50:59;12.85;;;7.63;;
8050;SDS011;4068;42.158;24.732;2023-07-24T01:53:24;14.63;;;8.60;;
8050;SDS011;4068;42.158;24.732;2023-07-24T01:55:50;13.98;;;9.15;;
8050;SDS011;4068;42.158;24.732;2023-07-24T01:58:15;15.25;;;9.63;;
8050;SDS011;4068;42.158;24.732;2023-07-24T02:00:40;11.23;;;8.77;;
8050;SDS011;4068;42.158;24.732;2023-07-24T02:03:06;12.13;;;9.25;;
8050;SDS011;4068;42.158;24.732;2023-07-24T02:05:32;12.63;;;8.68;;
8050;SDS011;4068;42.158;24.732;2023-07-24T02:07:57;13.02;;;9.07;;
8050;SDS011;4068;42.158;24.732;2023-07-24T02:10:23;14.18;;;10.10;;
8050;SDS011;4068;42.158;24.732;2023-07-24T02:12:48;14.30;;;9.85;;
8050;SDS011;4068;42.158;24.732;2023-07-24T02:15:13;12.55;;;9.52;;
8050;SDS011;4068;42.158;24.732;2023-07-24T02:17:39;13.20;;;9.75;;
8050;SDS011;4068;42.158;24.732;2023-07-24T02:20:04;20.13;;;10.82;;
8050;SDS011;4068;42.158;24.732;2023-07-24T02:22:30;13.65;;;10.48;;
8050;SDS011;4068;42.158;24.732;2023-07-24T02:24:56;18.17;;;10.10;;
8050;SDS011;4068;42.158;24.732;2023-07-24T02:27:25;15.30;;;10.18;;
8050;SDS011;4068;42.158;24.732;2023-07-24T02:29:52;13.30;;;10.77;;
8050;SDS011;4068;42.158;24.732;2023-07-24T02:32:18;18.95;;;11.25;;
8050;SDS011;4068;42.158;24.732;2023-07-24T02:34:46;21.88;;;11.38;;
8050;SDS011;4068;42.158;24.732;2023-07-24T02:37:11;18.58;;;12.57;;
8050;SDS011;4068;42.158;24.732;2023-07-24T02:39:37;16.73;;;11.80;;
8050;SDS011;4068;42.158;24.732;2023-07-24T02:42:02;19.75;;;12.70;;
8050;SDS011;4068;42.158;24.732;2023-07-24T02:47:12;23.60;;;13.27;;
8050;SDS011;4068;42.158;24.732;2023-07-24T02:49:38;19.65;;;13.35;;
8050;SDS011;4068;42.158;24.732;2023-07-24T02:52:03;23.60;;;14.23;;
8050;SDS011;4068;42.158;24.732;2023-07-24T02:54:29;22.73;;;14.48;;
8050;SDS011;4068;42.158;24.732;2023-07-24T02:56:54;24.98;;;15.10;;
8050;SDS011;4068;42.158;24.732;2023-07-24T02:59:20;26.05;;;15.38;;
8050;SDS011;4068;42.158;24.732;2023-07-24T03:01:45;32.58;;;16.25;;
8050;SDS011;4068;42.158;24.732;2023-07-24T03:04:11;31.23;;;16.35;;
8050;SDS011;4068;42.158;24.732;2023-07-24T03:06:36;27.92;;;16.40;;
8050;SDS011;4068;42.158;24.732;2023-07-24T03:09:01;28.33;;;15.63;;
8050;SDS011;4068;42.158;24.732;2023-07-24T03:11:27;28.73;;;16.50;;
8050;SDS011;4068;42.158;24.732;2023-07-24T03:13:52;27.88;;;16.10;;
8050;SDS011;4068;42.158;24.732;2023-07-24T03:16:18;28.67;;;16.42;;
8050;SDS011;4068;42.158;24.732;2023-07-24T03:18:44;30.40;;;15.73;;
8050;SDS011;4068;42.158;24.732;2023-07-24T03:21:10;35.00;;;16.77;;
8050;SDS011;4068;42.158;24.732;2023-07-24T03:23:35;29.17;;;15.82;;
8050;SDS011;4068;42.158;24.732;2023-07-24T03:26:01;38.30;;;15.95;;
8050;SDS011;4068;42.158;24.732;2023-07-24T03:28:26;36.55;;;15.93;;
8050;SDS011;4068;42.158;24.732;2023-07-24T03:30:52;29.67;;;15.93;;
8050;SDS011;4068;42.158;24.732;2023-07-24T03:33:17;35.40;;;17.00;;
8050;SDS011;4068;42.158;24.732;2023-07-24T03:35:42;29.70;;;15.73;;
8050;SDS011;4068;42.158;24.732;2023-07-24T03:38:08;31.83;;;16.60;;
8050;SDS011;4068;42.158;24.732;2023-07-24T03:40:33;36.92;;;16.83;;
8050;SDS011;4068;42.158;24.732;2023-07-24T03:42:59;30.63;;;17.15;;
8050;SDS011;4068;42.158;24.732;2023-07-24T03:45:24;28.75;;;16.80;;
8050;SDS011;4068;42.158;24.732;2023-07-24T03:47:50;32.58;;;16.52;;
8050;SDS011;4068;42.158;24.732;2023-07-24T03:50:16;35.92;;;16.77;;
8050;SDS011;4068;42.158;24.732;2023-07-24T03:52:41;34.78;;;17.40;;
8050;SDS011;4068;42.158;24.732;2023-07-24T03:55:07;28.33;;;16.67;;
8050;SDS011;4068;42.158;24.732;2023-07-24T03:57:33;27.88;;;14.80;;
8050;SDS011;4068;42.158;24.732;2023-07-24T03:59:58;28.67;;;15.63;;
8050;SDS011;4068;42.158;24.732;2023-07-24T04:02:23;28.73;;;16.10;;
8050;SDS011;4068;42.158;24.732;2023-07-24T04:04:49;26.98;;;15.40;;
8050;SDS011;4068;42.158;24.732;2023-07-24T04:07:14;25.50;;;15.52;;
8050;SDS011;4068;42.158;24.732;2023-07-24T04:09:40;30.02;;;14.30;;
8050;SDS011;4068;42.158;24.732;2023-07-24T04:12:05;25.45;;;14.13;;
8050;SDS011;4068;42.158;24.732;2023-07-24T04:14:31;24.48;;;14.75;;
8050;SDS011;4068;42.158;24.732;2023-07-24T04:16:56;29.20;;;16.88;;
8050;SDS011;4068;42.158;24.732;2023-07-24T04:19:21;25.50;;;15.48;;
8050;SDS011;4068;42.158;24.732;2023-07-24T04:21:47;26.42;;;14.30;;
8050;SDS011;4068;42.158;24.732;2023-07-24T04:24:12;22.85;;;13.90;;
8050;SDS011;4068;42.158;24.732;2023-07-24T04:26:38;26.92;;;14.88;;
8050;SDS011;4068;42.158;24.732;2023-07-24T04:29:04;24.35;;;14.90;;
8050;SDS011;4068;42.158;24.732;2023-07-24T04:31:30;25.85;;;14.77;;
8050;SDS011;4068;42.158;24.732;2023-07-24T04:33:56;28.38;;;15.70;;
8050;SDS011;4068;42.158;24.732;2023-07-24T04:36:21;28.98;;;15.43;;
8050;SDS011;4068;42.158;24.732;2023-07-24T04:38:46;21.33;;;13.25;;
8050;SDS011;4068;42.158;24.732;2023-07-24T04:41:12;20.90;;;14.18;;
8050;SDS011;4068;42.158;24.732;2023-07-24T04:43:37;24.75;;;14.13;;
8050;SDS011;4068;42.158;24.732;2023-07-24T04:46:03;22.80;;;14.38;;
8050;SDS011;4068;42.158;24.732;2023-07-24T04:48:28;23.27;;;13.98;;
8050;SDS011;4068;42.158;24.732;2023-07-24T04:50:54;24.40;;;14.90;;
8050;SDS011;4068;42.158;24.732;2023-07-24T04:53:20;21.40;;;13.23;;
8050;SDS011;4068;42.158;24.732;2023-07-24T04:55:46;25.60;;;13.85;;
8050;SDS011;4068;42.158;24.732;2023-07-24T04:58:12;25.65;;;13.45;;
8050;SDS011;4068;42.158;24.732;2023-07-24T05:00:37;24.75;;;13.38;;
8050;SDS011;4068;42.158;24.732;2023-07-24T05:03:02;21.25;;;13.82;;
8050;SDS011;4068;42.158;24.732;2023-07-24T05:05:28;23.67;;;14.18;;
8050;SDS011;4068;42.158;24.732;2023-07-24T05:07:53;30.60;;;14.95;;
8050;SDS011;4068;42.158;24.732;2023-07-24T05:10:19;26.15;;;14.38;;
8050;SDS011;4068;42.158;24.732;2023-07-24T05:12:44;25.92;;;14.15;;
8050;SDS011;4068;42.158;24.732;2023-07-24T05:15:09;24.42;;;15.40;;
8050;SDS011;4068;42.158;24.732;2023-07-24T05:17:35;21.27;;;14.23;;
8050;SDS011;4068;42.158;24.732;2023-07-24T05:20:00;27.77;;;15.38;;
8050;SDS011;4068;42.158;24.732;2023-07-24T05:22:26;24.05;;;13.75;;
8050;SDS011;4068;42.158;24.732;2023-07-24T05:24:51;22.20;;;14.18;;
8050;SDS011;4068;42.158;24.732;2023-07-24T05:27:17;27.10;;;13.90;;
8050;SDS011;4068;42.158;24.732;2023-07-24T05:29:42;22.33;;;14.10;;
8050;SDS011;4068;42.158;24.732;2023-07-24T05:32:08;25.48;;;14.43;;
8050;SDS011;4068;42.158;24.732;2023-07-24T05:34:34;22.02;;;14.38;;
8050;SDS011;4068;42.158;24.732;2023-07-24T05:36:59;25.17;;;14.48;;
8050;SDS011;4068;42.158;24.732;2023-07-24T05:39:24;25.63;;;14.80;;
8050;SDS011;4068;42.158;24.732;2023-07-24T05:41:50;20.13;;;14.25;;
8050;SDS011;4068;42.158;24.732;2023-07-24T05:44:15;23.83;;;15.23;;
8050;SDS011;4068;42.158;24.732;2023-07-24T05:46:41;25.80;;;15.00;;
8050;SDS011;4068;42.158;24.732;2023-07-24T05:49:06;19.50;;;14.43;;
8050;SDS011;4068;42.158;24.732;2023-07-24T05:51:32;21.95;;;14.02;;
8050;SDS011;4068;42.158;24.732;2023-07-24T05:53:58;29.00;;;14.40;;
8050;SDS011;4068;42.158;24.732;2023-07-24T05:56:23;21.35;;;13.77;;
8050;SDS011;4068;42.158;24.732;2023-07-24T05:58:49;23.90;;;14.98;;
8050;SDS011;4068;42.158;24.732;2023-07-24T06:01:15;22.30;;;13.85;;
8050;SDS011;4068;42.158;24.732;2023-07-24T06:03:40;23.35;;;13.48;;
8050;SDS011;4068;42.158;24.732;2023-07-24T06:06:06;21.35;;;12.63;;
8050;SDS011;4068;42.158;24.732;2023-07-24T06:08:31;22.67;;;14.40;;
8050;SDS011;4068;42.158;24.732;2023-07-24T06:10:58;18.95;;;12.45;;
8050;SDS011;4068;42.158;24.732;2023-07-24T06:13:23;22.90;;;13.10;;
8050;SDS011;4068;42.158;24.732;2023-07-24T06:15:49;18.55;;;12.18;;
8050;SDS011;4068;42.158;24.732;2023-07-24T06:18:15;20.40;;;12.35;;
8050;SDS011;4068;42.158;24.732;2023-07-24T06:20:40;20.08;;;13.27;;
8050;SDS011;4068;42.158;24.732;2023-07-24T06:23:06;19.75;;;11.90;;
8050;SDS011;4068;42.158;24.732;2023-07-24T06:25:32;22.10;;;12.75;;
8050;SDS011;4068;42.158;24.732;2023-07-24T06:27:58;21.10;;;11.73;;
8050;SDS011;4068;42.158;24.732;2023-07-24T06:30:23;19.95;;;13.35;;
8050;SDS011;4068;42.158;24.732;2023-07-24T06:32:49;19.85;;;12.45;;
8050;SDS011;4068;42.158;24.732;2023-07-24T06:35:14;22.73;;;13.32;;
8050;SDS011;4068;42.158;24.732;2023-07-24T06:37:40;26.42;;;14.15;;
8050;SDS011;4068;42.158;24.732;2023-07-24T06:40:06;21.38;;;12.50;;
8050;SDS011;4068;42.158;24.732;2023-07-24T06:42:32;18.70;;;12.68;;
8050;SDS011;4068;42.158;24.732;2023-07-24T06:44:58;24.02;;;12.20;;
8050;SDS011;4068;42.158;24.732;2023-07-24T06:47:23;22.10;;;11.95;;
8050;SDS011;4068;42.158;24.732;2023-07-24T06:49:49;24.80;;;12.45;;
8050;SDS011;4068;42.158;24.732;2023-07-24T06:52:14;19.05;;;12.63;;
8050;SDS011;4068;42.158;24.732;2023-07-24T06:54:39;22.10;;;12.45;;
8050;SDS011;4068;42.158;24.732;2023-07-24T06:57:05;25.00;;;13.40;;
8050;SDS011;4068;42.158;24.732;2023-07-24T06:59:31;20.83;;;13.35;;
8050;SDS011;4068;42.158;24.732;2023-07-24T07:01:56;18.55;;;12.45;;
8050;SDS011;4068;42.158;24.732;2023-07-24T07:04:21;25.63;;;13.52;;
8050;SDS011;4068;42.158;24.732;2023-07-24T07:06:47;21.50;;;12.13;;
8050;SDS011;4068;42.158;24.732;2023-07-24T07:09:12;19.73;;;11.68;;
8050;SDS011;4068;42.158;24.732;2023-07-24T07:11:38;19.75;;;12.23;;
8050;SDS011;4068;42.158;24.732;2023-07-24T07:14:04;20.88;;;12.57;;
8050;SDS011;4068;42.158;24.732;2023-07-24T07:16:29;22.85;;;14.43;;
8050;SDS011;4068;42.158;24.732;2023-07-24T07:18:55;18.90;;;12.82;;
8050;SDS011;4068;42.158;24.732;2023-07-24T07:21:20;22.17;;;12.98;;
8050;SDS011;4068;42.158;24.732;2023-07-24T07:23:46;21.30;;;12.85;;
8050;SDS011;4068;42.158;24.732;2023-07-24T07:26:11;22.25;;;12.95;;
8050;SDS011;4068;42.158;24.732;2023-07-24T07:28:36;20.17;;;12.77;;
8050;SDS011;4068;42.158;24.732;2023-07-24T07:31:02;18.80;;;12.52;;
8050;SDS011;4068;42.158;24.732;2023-07-24T07:33:29;25.73;;;14.25;;
8050;SDS011;4068;42.158;24.732;2023-07-24T07:35:54;20.13;;;13.30;;
8050;SDS011;4068;42.158;24.732;2023-07-24T07:38:20;22.90;;;12.95;;
8050;SDS011;4068;42.158;24.732;2023-07-24T07:40:47;19.95;;;13.02;;
8050;SDS011;4068;42.158;24.732;2023-07-24T07:43:13;24.40;;;12.75;;
8050;SDS011;4068;42.158;24.732;2023-07-24T07:45:38;20.63;;;13.10;;
8050;SDS011;4068;42.158;24.732;2023-07-24T07:48:04;17.98;;;13.25;;
8050;SDS011;4068;42.158;24.732;2023-07-24T07:50:30;23.25;;;13.90;;
8050;SDS011;4068;42.158;24.732;2023-07-24T07:52:55;22.85;;;13.15;;
8050;SDS011;4068;42.158;24.732;2023-07-24T07:55:21;21.50;;;13.50;;
8050;SDS011;4068;42.158;24.732;2023-07-24T07:57:46;21.08;;;11.75;;
8050;SDS011;4068;42.158;24.732;2023-07-24T08:00:12;23.00;;;12.77;;
8050;SDS011;4068;42.158;24.732;2023-07-24T08:02:38;17.20;;;12.77;;
8050;SDS011;4068;42.158;24.732;2023-07-24T08:05:08;22.05;;;13.65;;
8050;SDS011;4068;42.158;24.732;2023-07-24T08:07:34;19.55;;;13.35;;
8050;SDS011;4068;42.158;24.732;2023-07-24T08:10:00;19.90;;;12.88;;
8050;SDS011;4068;42.158;24.732;2023-07-24T08:12:25;27.10;;;11.90;;
8050;SDS011;4068;42.158;24.732;2023-07-24T08:14:51;20.17;;;12.05;;
8050;SDS011;4068;42.158;24.732;2023-07-24T08:17:16;19.95;;;11.30;;
8050;SDS011;4068;42.158;24.732;2023-07-24T08:19:42;20.17;;;11.88;;
8050;SDS011;4068;42.158;24.732;2023-07-24T08:22:07;17.70;;;12.18;;
8050;SDS011;4068;42.158;24.732;2023-07-24T08:24:36;16.52;;;11.50;;
8050;SDS011;4068;42.158;24.732;2023-07-24T08:27:01;18.25;;;11.93;;
8050;SDS011;4068;42.158;24.732;2023-07-24T08:29:27;18.13;;;10.65;;
8050;SDS011;4068;42.158;24.732;2023-07-24T08:31:53;14.75;;;11.02;;
8050;SDS011;4068;42.158;24.732;2023-07-24T08:34:18;15.13;;;11.32;;
8050;SDS011;4068;42.158;24.732;2023-07-24T08:36:44;17.58;;;11.75;;
8050;SDS011;4068;42.158;24.732;2023-07-24T08:39:09;19.58;;;11.05;;
8050;SDS011;4068;42.158;24.732;2023-07-24T08:41:36;16.77;;;11.30;;
8050;SDS011;4068;42.158;24.732;2023-07-24T08:44:02;16.85;;;11.93;;
8050;SDS011;4068;42.158;24.732;2023-07-24T08:46:30;21.05;;;12.15;;
8050;SDS011;4068;42.158;24.732;2023-07-24T08:49:00;21.73;;;12.57;;
8050;SDS011;4068;42.158;24.732;2023-07-24T08:51:26;15.70;;;11.00;;
8050;SDS011;4068;42.158;24.732;2023-07-24T08:53:53;17.58;;;12.07;;
8050;SDS011;4068;42.158;24.732;2023-07-24T08:56:19;17.90;;;11.52;;
8050;SDS011;4068;42.158;24.732;2023-07-24T08:58:44;20.17;;;13.07;;
8050;SDS011;4068;42.158;24.732;2023-07-24T09:01:10;17.02;;;12.55;;
8050;SDS011;4068;42.158;24.732;2023-07-24T09:03:35;18.60;;;12.57;;
8050;SDS011;4068;42.158;24.732;2023-07-24T09:06:01;20.85;;;12.82;;
8050;SDS011;4068;42.158;24.732;2023-07-24T09:08:29;21.27;;;12.15;;
8050;SDS011;4068;42.158;24.732;2023-07-24T09:11:15;17.60;;;11.68;;
8050;SDS011;4068;42.158;24.732;2023-07-24T09:13:41;23.77;;;12.25;;
8050;SDS011;4068;42.158;24.732;2023-07-24T09:16:07;17.60;;;12.13;;
8050;SDS011;4068;42.158;24.732;2023-07-24T09:18:40;14.80;;;11.27;;
8050;SDS011;4068;42.158;24.732;2023-07-24T09:21:06;20.45;;;12.13;;
8050;SDS011;4068;42.158;24.732;2023-07-24T09:23:32;18.08;;;12.02;;
8050;SDS011;4068;42.158;24.732;2023-07-24T09:25:57;18.30;;;12.00;;
8050;SDS011;4068;42.158;24.732;2023-07-24T09:28:23;20.42;;;11.50;;
8050;SDS011;4068;42.158;24.732;2023-07-24T09:30:56;17.98;;;11.70;;
8050;SDS011;4068;42.158;24.732;2023-07-24T09:33:23;16.63;;;11.65;;
8050;SDS011;4068;42.158;24.732;2023-07-24T09:36:02;15.30;;;11.88;;
8050;SDS011;4068;42.158;24.732;2023-07-24T09:38:29;17.83;;;11.68;;
8050;SDS011;4068;42.158;24.732;2023-07-24T09:40:55;23.17;;;12.30;;
8050;SDS011;4068;42.158;24.732;2023-07-24T09:45:48;21.45;;;11.73;;
8050;SDS011;4068;42.158;24.732;2023-07-24T09:48:15;12.80;;;10.27;;
8050;SDS011;4068;42.158;24.732;2023-07-24T09:50:42;15.68;;;11.13;;
8050;SDS011;4068;42.158;24.732;2023-07-24T09:53:12;19.35;;;11.18;;
8050;SDS011;4068;42.158;24.732;2023-07-24T09:55:47;13.82;;;10.80;;
8050;SDS011;4068;42.158;24.732;2023-07-24T09:58:23;14.50;;;10.05;;
8050;SDS011;4068;42.158;24.732;2023-07-24T10:00:50;15.48;;;10.32;;
8050;SDS011;4068;42.158;24.732;2023-07-24T10:03:16;14.88;;;10.25;;
8050;SDS011;4068;42.158;24.732;2023-07-24T10:05:44;16.42;;;10.45;;
8050;SDS011;4068;42.158;24.732;2023-07-24T10:08:14;14.30;;;10.00;;
8050;SDS011;4068;42.158;24.732;2023-07-24T10:10:41;19.77;;;10.45;;
8050;SDS011;4068;42.158;24.732;2023-07-24T10:13:07;14.52;;;9.57;;
8050;SDS011;4068;42.158;24.732;2023-07-24T10:15:36;13.32;;;9.52;;
8050;SDS011;4068;42.158;24.732;2023-07-24T10:18:06;14.27;;;9.63;;
8050;SDS011;4068;42.158;24.732;2023-07-24T10:20:33;12.93;;;10.05;;
8050;SDS011;4068;42.158;24.732;2023-07-24T10:23:03;15.55;;;9.98;;
8050;SDS011;4068;42.158;24.732;2023-07-24T10:25:33;18.70;;;10.40;;
8050;SDS011;4068;42.158;24.732;2023-07-24T10:28:03;15.02;;;9.93;;
8050;SDS011;4068;42.158;24.732;2023-07-24T10:30:36;16.50;;;9.90;;
8050;SDS011;4068;42.158;24.732;2023-07-24T10:38:04;18.02;;;10.45;;
8050;SDS011;4068;42.158;24.732;2023-07-24T10:40:30;17.52;;;10.20;;
8050;SDS011;4068;42.158;24.732;2023-07-24T10:48:16;12.55;;;9.60;;
8050;SDS011;4068;42.158;24.732;2023-07-24T10:50:44;17.80;;;10.27;;
8050;SDS011;4068;42.158;24.732;2023-07-24T10:53:13;15.00;;;10.80;;
8050;SDS011;4068;42.158;24.732;2023-07-24T10:55:43;13.63;;;9.63;;
8050;SDS011;4068;42.158;24.732;2023-07-24T10:58:10;14.75;;;10.57;;
8050;SDS011;4068;42.158;24.732;2023-07-24T11:00:38;17.58;;;10.82;;
8050;SDS011;4068;42.158;24.732;2023-07-24T11:03:05;13.05;;;9.60;;
8050;SDS011;4068;42.158;24.732;2023-07-24T11:05:33;15.98;;;9.82;;
8050;SDS011;4068;42.158;24.732;2023-07-24T11:07:59;15.98;;;9.60;;
8050;SDS011;4068;42.158;24.732;2023-07-24T11:10:24;13.38;;;9.70;;
8050;SDS011;4068;42.158;24.732;2023-07-24T11:12:50;16.55;;;10.18;;
8050;SDS011;4068;42.158;24.732;2023-07-24T11:15:23;16.38;;;10.32;;
8050;SDS011;4068;42.158;24.732;2023-07-24T11:17:49;15.02;;;10.18;;
8050;SDS011;4068;42.158;24.732;2023-07-24T11:20:15;20.75;;;10.20;;
8050;SDS011;4068;42.158;24.732;2023-07-24T11:22:41;18.55;;;10.45;;
8050;SDS011;4068;42.158;24.732;2023-07-24T11:25:08;20.13;;;11.60;;
8050;SDS011;4068;42.158;24.732;2023-07-24T11:27:42;13.82;;;10.65;;
8050;SDS011;4068;42.158;24.732;2023-07-24T11:30:11;13.80;;;10.65;;
8050;SDS011;4068;42.158;24.732;2023-07-24T11:32:38;15.55;;;12.05;;
8050;SDS011;4068;42.158;24.732;2023-07-24T11:35:04;17.27;;;10.45;;
8050;SDS011;4068;42.158;24.732;2023-07-24T11:37:30;15.88;;;10.45;;
8050;SDS011;4068;42.158;24.732;2023-07-24T11:39:57;16.60;;;10.98;;
8050;SDS011;4068;42.158;24.732;2023-07-24T11:42:36;14.90;;;10.45;;
8050;SDS011;4068;42.158;24.732;2023-07-24T11:45:02;15.25;;;10.88;;
8050;SDS011;4068;42.158;24.732;2023-07-24T11:47:28;14.27;;;10.68;;
8050;SDS011;4068;42.158;24.732;2023-07-24T11:49:57;17.67;;;11.80;;
8050;SDS011;4068;42.158;24.732;2023-07-24T11:52:24;16.27;;;11.10;;
8050;SDS011;4068;42.158;24.732;2023-07-24T11:54:56;15.38;;;10.57;;
8050;SDS011;4068;42.158;24.732;2023-07-24T11:57:31;14.93;;;11.02;;
8050;SDS011;4068;42.158;24.732;2023-07-24T11:59:56;12.52;;;10.57;;
8050;SDS011;4068;42.158;24.732;2023-07-24T12:02:25;12.07;;;9.77;;
8050;SDS011;4068;42.158;24.732;2023-07-24T12:04:56;15.13;;;9.85;;
8050;SDS011;4068;42.158;24.732;2023-07-24T12:07:29;14.73;;;10.18;;
8050;SDS011;4068;42.158;24.732;2023-07-24T12:10:01;12.88;;;9.88;;
8050;SDS011;4068;42.158;24.732;2023-07-24T12:12:37;15.27;;;9.55;;
8050;SDS011;4068;42.158;24.732;2023-07-24T12:15:08;14.45;;;10.88;;
8050;SDS011;4068;42.158;24.732;2023-07-24T12:17:35;13.25;;;10.05;;
8050;SDS011;4068;42.158;24.732;2023-07-24T12:20:01;17.85;;;10.00;;
8050;SDS011;4068;42.158;24.732;2023-07-24T12:22:27;13.77;;;10.20;;
8050;SDS011;4068;42.158;24.732;2023-07-24T12:24:53;11.80;;;9.60;;
8050;SDS011;4068;42.158;24.732;2023-07-24T12:27:18;13.02;;;9.85;;
8050;SDS011;4068;42.158;24.732;2023-07-24T12:29:43;12.23;;;9.50;;
8050;SDS011;4068;42.158;24.732;2023-07-24T12:32:09;11.07;;;8.70;;
8050;SDS011;4068;42.158;24.732;2023-07-24T12:34:34;10.60;;;8.55;;
8050;SDS011;4068;42.158;24.732;2023-07-24T12:36:59;16.73;;;9.27;;
8050;SDS011;4068;42.158;24.732;2023-07-24T12:39:25;11.55;;;8.68;;
8050;SDS011;4068;42.158;24.732;2023-07-24T12:41:50;12.05;;;8.98;;
8050;SDS011;4068;42.158;24.732;2023-07-24T12:44:16;11.68;;;8.32;;
8050;SDS011;4068;42.158;24.732;2023-07-24T12:46:41;15.85;;;9.40;;
8050;SDS011;4068;42.158;24.732;2023-07-24T12:49:07;16.42;;;9.15;;
8050;SDS011;4068;42.158;24.732;2023-07-24T12:51:32;11.57;;;8.63;;
8050;SDS011;4068;42.158;24.732;2023-07-24T12:53:58;14.55;;;9.43;;
8050;SDS011;4068;42.158;24.732;2023-07-24T12:56:23;12.13;;;8.90;;
8050;SDS011;4068;42.158;24.732;2023-07-24T12:58:49;12.48;;;8.52;;
8050;SDS011;4068;42.158;24.732;2023-07-24T13:01:14;11.65;;;8.77;;
8050;SDS011;4068;42.158;24.732;2023-07-24T13:03:40;12.50;;;8.60;;
8050;SDS011;4068;42.158;24.732;2023-07-24T13:06:05;13.20;;;8.32;;
8050;SDS011;4068;42.158;24.732;2023-07-24T13:08:30;15.25;;;9.68;;
8050;SDS011;4068;42.158;24.732;2023-07-24T13:10:56;10.93;;;7.78;;
8050;SDS011;4068;42.158;24.732;2023-07-24T13:13:21;11.55;;;8.23;;
8050;SDS011;4068;42.158;24.732;2023-07-24T13:15:47;11.00;;;8.13;;
8050;SDS011;4068;42.158;24.732;2023-07-24T13:18:14;13.60;;;7.90;;
8050;SDS011;4068;42.158;24.732;2023-07-24T13:20:41;13.65;;;8.60;;
8050;SDS011;4068;42.158;24.732;2023-07-24T13:23:07;12.68;;;8.38;;
8050;SDS011;4068;42.158;24.732;2023-07-24T13:25:32;15.65;;;8.25;;
8050;SDS011;4068;42.158;24.732;2023-07-24T13:27:58;11.30;;;8.15;;
8050;SDS011;4068;42.158;24.732;2023-07-24T13:30:23;14.25;;;8.48;;
8050;SDS011;4068;42.158;24.732;2023-07-24T13:32:49;13.65;;;8.82;;
8050;SDS011;4068;42.158;24.732;2023-07-24T13:35:14;14.93;;;8.60;;
8050;SDS011;4068;42.158;24.732;2023-07-24T13:37:40;11.50;;;8.27;;
8050;SDS011;4068;42.158;24.732;2023-07-24T13:40:06;13.27;;;7.90;;
8050;SDS011;4068;42.158;24.732;2023-07-24T13:42:32;8.77;;;7.30;;
8050;SDS011;4068;42.158;24.732;2023-07-24T13:44:57;15.13;;;8.73;;
8050;SDS011;4068;42.158;24.732;2023-07-24T13:47:23;11.73;;;8.57;;
8050;SDS011;4068;42.158;24.732;2023-07-24T13:49:48;11.45;;;8.43;;
8050;SDS011;4068;42.158;24.732;2023-07-24T13:52:14;12.55;;;8.20;;
8050;SDS011;4068;42.158;24.732;2023-07-24T13:54:39;11.40;;;8.15;;
8050;SDS011;4068;42.158;24.732;2023-07-24T13:57:05;14.10;;;8.20;;
8050;SDS011;4068;42.158;24.732;2023-07-24T13:59:32;13.38;;;8.55;;
8050;SDS011;4068;42.158;24.732;2023-07-24T14:01:58;11.73;;;7.80;;
8050;SDS011;4068;42.158;24.732;2023-07-24T14:04:23;13.02;;;9.27;;
8050;SDS011;4068;42.158;24.732;2023-07-24T14:06:48;14.00;;;7.97;;
8050;SDS011;4068;42.158;24.732;2023-07-24T14:09:14;12.10;;;7.78;;
8050;SDS011;4068;42.158;24.732;2023-07-24T14:11:39;11.98;;;8.20;;
8050;SDS011;4068;42.158;24.732;2023-07-24T14:14:04;10.30;;;7.75;;
8050;SDS011;4068;42.158;24.732;2023-07-24T14:16:30;12.07;;;8.02;;
8050;SDS011;4068;42.158;24.732;2023-07-24T14:18:55;11.70;;;7.32;;
8050;SDS011;4068;42.158;24.732;2023-07-24T14:21:21;14.38;;;8.27;;
8050;SDS011;4068;42.158;24.732;2023-07-24T14:23:46;10.77;;;8.23;;
8050;SDS011;4068;42.158;24.732;2023-07-24T14:26:11;12.35;;;8.15;;
8050;SDS011;4068;42.158;24.732;2023-07-24T14:28:37;13.93;;;9.48;;
8050;SDS011;4068;42.158;24.732;2023-07-24T14:31:02;16.55;;;8.48;;
8050;SDS011;4068;42.158;24.732;2023-07-24T14:33:29;12.68;;;7.93;;
8050;SDS011;4068;42.158;24.732;2023-07-24T14:35:55;13.20;;;8.23;;
8050;SDS011;4068;42.158;24.732;2023-07-24T14:38:20;11.02;;;7.78;;
8050;SDS011;4068;42.158;24.732;2023-07-24T14:40:45;10.25;;;7.60;;
8050;SDS011;4068;42.158;24.732;2023-07-24T14:43:11;12.18;;;7.95;;
8050;SDS011;4068;42.158;24.732;2023-07-24T14:45:36;11.52;;;7.90;;
8050;SDS011;4068;42.158;24.732;2023-07-24T14:48:02;10.73;;;8.13;;
8050;SDS011;4068;42.158;24.732;2023-07-24T14:50:28;11.85;;;7.47;;
8050;SDS011;4068;42.158;24.732;2023-07-24T14:52:53;10.30;;;7.28;;